createdAt,value
2018-09-02T00:00:34.031Z,6.10
2018-09-02T00:03:03.563Z,5.70
2018-09-02T00:05:31.840Z,5.60
2018-09-02T00:08:00.651Z,6.07
2018-09-02T00:10:29.523Z,5.23
2018-09-02T00:12:57.765Z,5.30
2018-09-02T00:15:25.990Z,4.70
2018-09-02T00:17:54.207Z,5.93
2018-09-02T00:20:22.444Z,4.93
2018-09-02T00:22:50.734Z,5.40
2018-09-02T00:25:19.178Z,5.50
2018-09-02T00:27:47.389Z,5.90
2018-09-02T00:30:15.649Z,5.70
2018-09-02T00:32:43.875Z,7.03
2018-09-02T00:35:12.113Z,6.20
2018-09-02T00:37:40.314Z,5.50
2018-09-02T00:40:08.533Z,5.90
2018-09-02T00:42:36.747Z,5.67
2018-09-02T00:45:04.978Z,5.50
2018-09-02T00:47:33.220Z,5.50
2018-09-02T00:50:01.429Z,6.10
2018-09-02T00:52:29.660Z,5.40
2018-09-02T00:54:57.882Z,6.13
2018-09-02T00:57:26.115Z,6.40
2018-09-02T00:59:54.338Z,5.60
2018-09-02T01:02:22.572Z,6.33
2018-09-02T01:04:50.803Z,5.80
2018-09-02T01:07:19.023Z,6.00
2018-09-02T01:09:47.236Z,5.93
2018-09-02T01:12:15.460Z,5.47
2018-09-02T01:14:43.678Z,5.63
2018-09-02T01:17:11.906Z,6.50
2018-09-02T01:19:40.138Z,5.63
2018-09-02T01:22:08.374Z,6.20
2018-09-02T01:24:36.591Z,5.20
2018-09-02T01:27:04.830Z,5.33
2018-09-02T01:29:33.040Z,5.70
2018-09-02T01:32:01.251Z,6.50
2018-09-02T01:34:29.477Z,5.30
2018-09-02T01:36:57.669Z,5.93
2018-09-02T01:39:25.909Z,5.83
2018-09-02T01:41:54.131Z,5.70
2018-09-02T01:44:22.358Z,5.80
2018-09-02T01:46:50.553Z,5.87
2018-09-02T01:49:18.769Z,5.23
2018-09-02T01:51:46.987Z,5.93
2018-09-02T01:54:15.218Z,5.93
2018-09-02T01:56:43.419Z,5.87
2018-09-02T01:59:11.674Z,5.70
2018-09-02T02:01:39.879Z,6.00
2018-09-02T02:04:08.103Z,5.63
2018-09-02T02:06:36.316Z,5.60
2018-09-02T02:09:05.993Z,5.97
2018-09-02T02:11:34.214Z,6.20
2018-09-02T02:14:02.446Z,6.20
2018-09-02T02:16:30.650Z,5.70
2018-09-02T02:18:58.879Z,5.37
2018-09-02T02:21:27.098Z,6.03
2018-09-02T02:23:55.333Z,5.17
2018-09-02T02:26:23.554Z,6.83
2018-09-02T02:28:51.785Z,6.03
2018-09-02T02:31:20.002Z,6.17
2018-09-02T02:33:48.227Z,6.33
2018-09-02T02:36:16.447Z,6.13
2018-09-02T02:38:44.691Z,5.73
2018-09-02T02:41:12.903Z,5.40
2018-09-02T02:43:41.131Z,5.80
2018-09-02T02:46:09.357Z,5.37
2018-09-02T02:48:37.588Z,5.80
2018-09-02T02:51:05.850Z,6.33
2018-09-02T02:53:40.954Z,5.90
2018-09-02T02:56:09.169Z,5.70
2018-09-02T02:58:37.399Z,5.63
2018-09-02T03:01:05.630Z,5.90
2018-09-02T03:03:33.847Z,5.80
2018-09-02T03:06:02.086Z,6.10
2018-09-02T03:08:30.311Z,6.50
2018-09-02T03:10:58.533Z,6.30
2018-09-02T03:13:26.779Z,5.60
2018-09-02T03:15:55.003Z,6.30
2018-09-02T03:18:23.211Z,5.60
2018-09-02T03:20:51.428Z,5.57
2018-09-02T03:23:19.638Z,6.37
2018-09-02T03:25:47.868Z,6.17
2018-09-02T03:28:16.074Z,5.40
2018-09-02T03:30:44.303Z,6.10
2018-09-02T03:33:12.523Z,6.20
2018-09-02T03:35:40.765Z,6.27
2018-09-02T03:38:08.966Z,6.80
2018-09-02T03:40:37.191Z,6.47
2018-09-02T03:43:05.491Z,6.47
2018-09-02T03:45:33.715Z,6.37
2018-09-02T03:48:01.965Z,6.20
2018-09-02T03:50:30.199Z,7.20
2018-09-02T03:52:58.414Z,6.33
2018-09-02T03:55:26.648Z,7.00
2018-09-02T03:57:54.911Z,6.40
2018-09-02T04:00:23.132Z,6.50
2018-09-02T04:02:51.330Z,7.20
2018-09-02T04:05:19.559Z,7.10
2018-09-02T04:07:47.766Z,6.73
2018-09-02T04:10:15.996Z,6.40
2018-09-02T04:12:44.218Z,6.80
2018-09-02T04:15:12.447Z,6.23
2018-09-02T04:17:40.656Z,6.43
2018-09-02T04:20:08.975Z,6.57
2018-09-02T04:22:37.189Z,6.67
2018-09-02T04:25:05.423Z,6.60
2018-09-02T04:27:33.638Z,6.67
2018-09-02T04:30:01.907Z,6.93
2018-09-02T04:32:30.118Z,5.97
2018-09-02T04:34:58.356Z,6.80
2018-09-02T04:37:26.571Z,5.80
2018-09-02T04:39:54.787Z,5.90
2018-09-02T04:42:23.039Z,6.00
2018-09-02T04:44:51.261Z,6.30
2018-09-02T04:47:19.492Z,6.13
2018-09-02T04:49:47.703Z,5.77
2018-09-02T04:52:15.941Z,6.07
2018-09-02T04:54:44.159Z,6.17
2018-09-02T04:57:12.393Z,6.07
2018-09-02T04:59:40.607Z,5.57
2018-09-02T05:02:08.840Z,5.90
2018-09-02T05:04:37.042Z,5.10
2018-09-02T05:07:05.283Z,5.93
2018-09-02T05:09:34.471Z,5.50
2018-09-02T05:12:02.697Z,6.10
2018-09-02T05:14:30.901Z,6.00
2018-09-02T05:16:59.131Z,5.90
2018-09-02T05:19:27.359Z,6.43
2018-09-02T05:21:55.601Z,5.97
2018-09-02T05:24:23.826Z,7.27
2018-09-02T05:26:52.059Z,6.87
2018-09-02T05:29:20.287Z,6.97
2018-09-02T05:31:48.522Z,7.40
2018-09-02T05:34:16.757Z,6.80
2018-09-02T05:36:45.006Z,6.90
2018-09-02T05:39:13.232Z,8.60
2018-09-02T05:41:41.472Z,6.90
2018-09-02T05:44:09.830Z,7.67
2018-09-02T05:46:37.996Z,7.77
2018-09-02T05:49:06.207Z,7.70
2018-09-02T05:51:37.782Z,7.67
2018-09-02T05:54:06.028Z,8.20
2018-09-02T05:56:34.250Z,7.40
2018-09-02T05:59:02.492Z,7.10
2018-09-02T06:01:30.697Z,7.50
2018-09-02T06:03:58.951Z,6.97
2018-09-02T06:06:27.171Z,7.30
2018-09-02T06:08:55.385Z,7.70
2018-09-02T06:11:23.612Z,7.40
2018-09-02T06:13:51.844Z,7.63
2018-09-02T06:16:20.080Z,7.90
2018-09-02T06:18:48.372Z,6.93
2018-09-02T06:21:16.563Z,6.90
2018-09-02T06:23:44.791Z,6.60
2018-09-02T06:26:13.007Z,7.27
2018-09-02T06:28:41.219Z,7.30
2018-09-02T06:31:09.457Z,7.20
2018-09-02T06:33:37.687Z,6.80
2018-09-02T06:36:05.932Z,7.33
2018-09-02T06:38:34.166Z,7.00
2018-09-02T06:41:02.379Z,7.23
2018-09-02T06:43:30.590Z,8.73
2018-09-02T06:45:58.806Z,6.70
2018-09-02T06:48:27.051Z,6.97
2018-09-02T06:50:55.307Z,6.63
2018-09-02T06:53:23.529Z,6.00
2018-09-02T06:55:51.749Z,6.77
2018-09-02T06:58:19.988Z,6.47
2018-09-02T07:00:48.187Z,6.80
2018-09-02T07:03:16.417Z,6.40
2018-09-02T07:05:44.633Z,6.07
2018-09-02T07:08:13.499Z,6.17
2018-09-02T07:10:42.574Z,6.87
2018-09-02T07:13:10.827Z,6.37
2018-09-02T07:15:39.057Z,6.70
2018-09-02T07:18:07.322Z,6.47
2018-09-02T07:20:35.554Z,6.57
2018-09-02T07:23:04.473Z,6.40
2018-09-02T07:25:32.975Z,7.03
2018-09-02T07:28:01.182Z,6.87
2018-09-02T07:30:29.414Z,6.50
2018-09-02T07:32:57.643Z,6.20
2018-09-02T07:35:25.891Z,7.60
2018-09-02T07:37:54.077Z,5.90
2018-09-02T07:40:22.355Z,5.70
2018-09-02T07:42:50.564Z,6.07
2018-09-02T07:45:19.498Z,5.77
2018-09-02T07:47:47.754Z,5.80
2018-09-02T07:50:15.982Z,5.77
2018-09-02T07:52:44.228Z,6.23
2018-09-02T07:55:12.463Z,5.60
2018-09-02T07:57:40.678Z,6.07
2018-09-02T08:00:09.874Z,5.77
2018-09-02T08:02:38.204Z,5.20
2018-09-02T08:05:06.545Z,4.97
2018-09-02T08:07:34.768Z,4.40
2018-09-02T08:10:02.990Z,4.77
2018-09-02T08:12:31.290Z,5.00
2018-09-02T08:14:59.459Z,4.20
2018-09-02T08:17:27.667Z,4.93
2018-09-02T08:19:55.908Z,4.80
2018-09-02T08:22:24.119Z,5.13
2018-09-02T08:24:52.339Z,5.13
2018-09-02T08:27:20.571Z,5.23
2018-09-02T08:29:48.774Z,4.63
2018-09-02T08:32:17.006Z,4.90
2018-09-02T08:34:45.235Z,4.33
2018-09-02T08:37:13.457Z,4.53
2018-09-02T08:39:41.671Z,4.40
2018-09-02T08:42:09.902Z,4.63
2018-09-02T08:44:38.118Z,4.90
2018-09-02T08:47:06.342Z,4.43
2018-09-02T08:49:34.883Z,4.50
2018-09-02T08:52:03.124Z,4.83
2018-09-02T08:54:31.336Z,4.73
2018-09-02T08:56:59.557Z,4.73
2018-09-02T08:59:27.778Z,4.47
2018-09-02T09:01:56.016Z,4.57
2018-09-02T09:04:24.235Z,4.37
2018-09-02T09:06:52.483Z,4.33
2018-09-02T09:09:20.983Z,4.97
2018-09-02T09:11:49.019Z,4.37
2018-09-02T09:14:17.238Z,3.80
2018-09-02T09:16:45.515Z,4.63
2018-09-02T09:19:13.690Z,4.37
2018-09-02T09:21:42.228Z,4.40
2018-09-02T09:24:10.365Z,4.53
2018-09-02T09:26:38.579Z,4.37
2018-09-02T09:29:06.827Z,4.60
2018-09-02T09:31:35.226Z,4.60
2018-09-02T09:34:03.456Z,4.13
2018-09-02T09:36:31.682Z,4.23
2018-09-02T09:38:59.892Z,3.90
2018-09-02T09:41:28.115Z,4.20
2018-09-02T09:43:56.480Z,4.10
2018-09-02T09:46:25.635Z,4.30
2018-09-02T09:48:53.873Z,4.70
2018-09-02T09:51:22.107Z,4.27
2018-09-02T09:53:50.322Z,4.60
2018-09-02T09:56:18.548Z,4.47
2018-09-02T09:58:46.802Z,3.77
2018-09-02T10:01:15.199Z,4.60
2018-09-02T10:03:43.461Z,4.43
2018-09-02T10:06:11.678Z,4.10
2018-09-02T10:08:46.522Z,4.90
2018-09-02T10:11:14.730Z,5.17
2018-09-02T10:13:42.962Z,4.20
2018-09-02T10:16:11.158Z,4.33
2018-09-02T10:18:39.433Z,4.50
2018-09-02T10:21:07.651Z,4.00
2018-09-02T10:23:35.927Z,4.70
2018-09-02T10:26:04.159Z,5.37
2018-09-02T10:28:32.378Z,4.40
2018-09-02T10:31:00.745Z,4.57
2018-09-02T10:33:29.036Z,4.80
2018-09-02T10:35:57.235Z,4.17
2018-09-02T10:38:25.458Z,4.77
2018-09-02T10:40:53.703Z,5.37
2018-09-02T10:43:21.902Z,4.93
2018-09-02T10:45:50.122Z,5.70
2018-09-02T10:48:18.348Z,4.90
2018-09-02T10:50:46.558Z,4.77
2018-09-02T10:53:14.778Z,4.90
2018-09-02T10:55:43.000Z,5.20
2018-09-02T10:58:11.217Z,5.33
2018-09-02T11:00:39.422Z,4.60
2018-09-02T11:03:07.633Z,4.80
2018-09-02T11:05:35.862Z,5.00
2018-09-02T11:08:04.262Z,5.07
2018-09-02T11:10:47.855Z,4.63
2018-09-02T11:13:18.219Z,4.67
2018-09-02T11:15:46.586Z,4.53
2018-09-02T11:18:14.872Z,4.77
2018-09-02T11:20:43.083Z,4.40
2018-09-02T11:23:11.298Z,5.00
2018-09-02T11:25:39.560Z,3.60
2018-09-02T11:28:07.977Z,4.70
2018-09-02T11:30:36.218Z,4.53
2018-09-02T11:33:04.438Z,5.40
2018-09-02T11:35:32.689Z,4.80
2018-09-02T11:38:00.914Z,4.90
2018-09-02T11:40:29.147Z,4.37
2018-09-02T11:42:57.372Z,5.40
2018-09-02T11:45:25.591Z,7.83
2018-09-02T11:47:53.803Z,4.00
2018-09-02T11:50:22.029Z,4.20
2018-09-02T11:52:50.246Z,4.23
2018-09-02T11:55:18.476Z,4.30
2018-09-02T11:57:46.777Z,3.70
2018-09-02T12:00:15.850Z,3.70
2018-09-02T12:02:44.085Z,4.07
2018-09-02T12:05:12.308Z,4.00
2018-09-02T12:07:40.520Z,4.53
2018-09-02T12:10:08.786Z,4.43
2018-09-02T12:12:37.040Z,3.87
2018-09-02T12:15:05.288Z,4.23
2018-09-02T12:17:33.502Z,4.40
2018-09-02T12:20:01.730Z,4.03
2018-09-02T12:22:29.946Z,4.20
2018-09-02T12:24:58.182Z,3.93
2018-09-02T12:27:26.415Z,4.13
2018-09-02T12:29:54.631Z,4.33
2018-09-02T12:32:22.856Z,4.63
2018-09-02T12:34:51.102Z,3.60
2018-09-02T12:37:19.330Z,4.43
2018-09-02T12:39:47.575Z,3.70
2018-09-02T12:42:15.825Z,4.27
2018-09-02T12:44:44.022Z,4.20
2018-09-02T12:47:12.238Z,4.20
2018-09-02T12:49:40.471Z,3.90
2018-09-02T12:52:08.704Z,3.80
2018-09-02T12:54:36.925Z,4.20
2018-09-02T12:57:05.154Z,3.40
2018-09-02T12:59:33.559Z,4.10
2018-09-02T13:02:01.796Z,3.77
2018-09-02T13:04:29.998Z,3.40
2018-09-02T13:06:58.240Z,3.67
2018-09-02T13:09:26.471Z,3.37
2018-09-02T13:11:55.319Z,3.60
2018-09-02T13:14:23.522Z,3.47
2018-09-02T13:16:51.751Z,3.67
2018-09-02T13:19:20.273Z,3.37
2018-09-02T13:21:48.535Z,3.60
2018-09-02T13:24:16.748Z,3.63
2018-09-02T13:26:45.015Z,3.70
2018-09-02T13:29:13.250Z,3.73
2018-09-02T13:31:41.544Z,3.27
2018-09-02T13:34:09.732Z,3.03
2018-09-02T13:36:37.974Z,3.17
2018-09-02T13:39:07.207Z,3.50
2018-09-02T13:41:35.463Z,3.70
2018-09-02T13:44:03.680Z,4.00
2018-09-02T13:46:31.895Z,4.23
2018-09-02T13:49:00.122Z,3.00
2018-09-02T13:51:28.360Z,3.63
2018-09-02T13:53:56.574Z,3.90
2018-09-02T13:56:24.867Z,3.70
2018-09-02T13:58:53.098Z,3.30
2018-09-02T14:01:21.310Z,3.53
2018-09-02T14:03:49.535Z,3.60
2018-09-02T14:06:17.762Z,3.77
2018-09-02T14:08:45.969Z,4.00
2018-09-02T14:11:14.399Z,3.27
2018-09-02T14:13:42.649Z,3.90
2018-09-02T14:16:10.857Z,3.57
2018-09-02T14:18:39.093Z,3.70
2018-09-02T14:21:07.319Z,3.37
2018-09-02T14:23:35.535Z,3.57
2018-09-02T14:26:04.258Z,2.80
2018-09-02T14:28:32.544Z,3.70
2018-09-02T14:31:00.710Z,3.57
2018-09-02T14:33:28.949Z,3.23
2018-09-02T14:35:57.170Z,3.70
2018-09-02T14:38:25.400Z,2.80
2018-09-02T14:40:53.622Z,3.33
2018-09-02T14:43:21.948Z,3.73
2018-09-02T14:45:50.158Z,3.30
2018-09-02T14:48:18.395Z,3.80
2018-09-02T14:50:46.663Z,4.83
2018-09-02T14:53:14.833Z,4.20
2018-09-02T14:55:43.070Z,3.70
2018-09-02T14:58:11.311Z,4.37
2018-09-02T15:00:39.558Z,5.13
2018-09-02T15:03:07.767Z,3.73
2018-09-02T15:05:36.009Z,4.50
2018-09-02T15:08:04.217Z,4.90
2018-09-02T15:10:32.434Z,3.77
2018-09-02T15:13:00.648Z,4.23
2018-09-02T15:15:28.866Z,4.60
2018-09-02T15:17:57.077Z,3.80
2018-09-02T15:20:25.311Z,4.60
2018-09-02T15:22:53.522Z,3.80
2018-09-02T15:25:21.746Z,3.70
2018-09-02T15:27:50.246Z,4.47
2018-09-02T15:30:18.458Z,4.40
2018-09-02T15:32:46.675Z,4.37
2018-09-02T15:35:14.912Z,4.40
2018-09-02T15:37:43.130Z,4.10
2018-09-02T15:40:11.356Z,3.63
2018-09-02T15:42:39.614Z,4.40
2018-09-02T15:45:07.846Z,3.70
2018-09-02T15:47:36.050Z,4.10
2018-09-02T15:50:04.366Z,4.20
2018-09-02T15:52:32.588Z,4.10
2018-09-02T15:55:00.815Z,4.43
2018-09-02T15:57:29.383Z,4.40
2018-09-02T15:59:57.618Z,4.67
2018-09-02T16:02:25.830Z,4.43
2018-09-02T16:04:54.051Z,4.00
2018-09-02T16:07:26.495Z,4.80
2018-09-02T16:09:54.721Z,4.73
2018-09-02T16:12:22.942Z,4.30
2018-09-02T16:14:51.162Z,4.53
2018-09-02T16:17:19.384Z,4.63
2018-09-02T16:19:47.698Z,3.77
2018-09-02T16:22:15.914Z,3.80
2018-09-02T16:24:44.157Z,3.50
2018-09-02T16:27:12.373Z,3.33
2018-09-02T16:29:40.598Z,3.47
2018-09-02T16:32:08.811Z,3.93
2018-09-02T16:34:37.038Z,3.73
2018-09-02T16:37:06.539Z,3.17
2018-09-02T16:39:34.755Z,3.67
2018-09-02T16:42:02.975Z,3.87
2018-09-02T16:44:31.170Z,3.20
2018-09-02T16:46:59.394Z,3.03
2018-09-02T16:49:27.603Z,3.93
2018-09-02T16:51:55.839Z,3.20
2018-09-02T16:54:24.115Z,3.10
2018-09-02T16:56:52.323Z,3.63
2018-09-02T16:59:20.548Z,3.50
2018-09-02T17:01:48.774Z,3.07
2018-09-02T17:04:17.354Z,3.63
2018-09-02T17:06:45.568Z,3.20
2018-09-02T17:09:13.776Z,3.30
2018-09-02T17:11:42.024Z,3.40
2018-09-02T17:14:10.554Z,3.47
2018-09-02T17:16:38.768Z,3.40
2018-09-02T17:19:10.174Z,2.90
2018-09-02T17:21:38.397Z,3.73
2018-09-02T17:24:06.842Z,3.27
2018-09-02T17:26:35.069Z,3.23
2018-09-02T17:29:03.294Z,3.47
2018-09-02T17:31:31.519Z,3.30
2018-09-02T17:33:59.721Z,3.33
2018-09-02T17:36:27.961Z,3.53
2018-09-02T17:38:56.170Z,3.40
2018-09-02T17:41:24.416Z,3.40
2018-09-02T17:43:52.623Z,2.67
2018-09-02T17:46:20.877Z,3.37
2018-09-02T17:48:49.083Z,3.00
2018-09-02T17:51:17.298Z,3.00
2018-09-02T17:53:45.510Z,3.20
2018-09-02T17:56:14.063Z,3.80
2018-09-02T17:58:42.302Z,3.50
2018-09-02T18:01:10.527Z,3.60
2018-09-02T18:03:38.813Z,3.80
2018-09-02T18:06:07.026Z,3.47
2018-09-02T18:08:35.298Z,3.70
2018-09-02T18:11:03.535Z,4.43
2018-09-02T18:13:31.775Z,3.90
2018-09-02T18:16:00.104Z,4.23
2018-09-02T18:18:28.258Z,5.43
2018-09-02T18:20:56.506Z,4.43
2018-09-02T18:23:24.735Z,4.90
2018-09-02T18:25:52.942Z,4.40
2018-09-02T18:28:23.852Z,4.50
2018-09-02T18:30:52.170Z,4.90
2018-09-02T18:33:20.395Z,4.60
2018-09-02T18:35:48.643Z,4.60
2018-09-02T18:38:16.865Z,4.80
2018-09-02T18:40:45.092Z,4.77
2018-09-02T18:43:13.327Z,5.37
2018-09-02T18:45:41.562Z,5.27
2018-09-02T18:48:09.787Z,5.03
2018-09-02T18:50:38.132Z,4.90
2018-09-02T18:53:06.367Z,5.10
2018-09-02T18:55:34.595Z,5.30
2018-09-02T18:58:02.858Z,5.70
2018-09-02T19:00:31.064Z,4.90
2018-09-02T19:02:59.324Z,6.00
2018-09-02T19:05:27.566Z,4.90
2018-09-02T19:07:55.829Z,5.37
2018-09-02T19:10:24.024Z,5.00
2018-09-02T19:12:52.270Z,5.10
2018-09-02T19:15:20.485Z,5.90
2018-09-02T19:17:48.767Z,5.87
2018-09-02T19:20:16.987Z,5.97
2018-09-02T19:22:45.222Z,6.13
2018-09-02T19:25:13.458Z,6.10
2018-09-02T19:27:41.682Z,5.53
2018-09-02T19:30:09.911Z,6.00
2018-09-02T19:32:38.141Z,6.27
2018-09-02T19:35:06.457Z,5.67
2018-09-02T19:37:34.653Z,6.00
2018-09-02T19:40:02.897Z,5.50
2018-09-02T19:42:37.804Z,5.03
2018-09-02T19:45:06.796Z,6.03
2018-09-02T19:47:35.028Z,5.17
2018-09-02T19:50:03.644Z,6.00
2018-09-02T19:52:31.879Z,5.80
2018-09-02T19:55:00.139Z,5.70
2018-09-02T19:57:28.352Z,6.20
2018-09-02T19:59:56.697Z,6.10
2018-09-02T20:02:24.909Z,5.27
2018-09-02T20:04:53.129Z,5.93
2018-09-02T20:07:21.349Z,5.97
2018-09-02T20:09:49.576Z,6.10
2018-09-02T20:12:17.766Z,6.80
2018-09-02T20:14:46.013Z,6.57
2018-09-02T20:17:14.275Z,6.37
2018-09-02T20:19:42.491Z,5.70
2018-09-02T20:22:12.184Z,6.30
2018-09-02T20:24:40.419Z,7.00
2018-09-02T20:27:08.991Z,6.53
2018-09-02T20:29:37.294Z,5.97
2018-09-02T20:32:05.534Z,6.17
2018-09-02T20:34:33.775Z,6.07
2018-09-02T20:37:02.048Z,6.00
2018-09-02T20:39:30.255Z,5.70
2018-09-02T20:41:58.481Z,5.90
2018-09-02T20:44:26.702Z,5.60
2018-09-02T20:46:54.932Z,7.20
2018-09-02T20:49:23.157Z,7.23
2018-09-02T20:51:51.387Z,6.70
2018-09-02T20:54:19.606Z,6.30
2018-09-02T20:56:47.862Z,7.47
2018-09-02T20:59:16.075Z,7.13
2018-09-02T21:01:44.296Z,6.97
2018-09-02T21:04:12.533Z,7.70
2018-09-02T21:06:40.774Z,7.20
2018-09-02T21:09:12.314Z,7.60
2018-09-02T21:11:40.550Z,7.00
2018-09-02T21:14:09.042Z,7.40
2018-09-02T21:16:37.266Z,6.87
2018-09-02T21:19:05.631Z,7.10
2018-09-02T21:21:33.919Z,7.80
2018-09-02T21:24:02.138Z,8.57
2018-09-02T21:26:30.352Z,8.47
2018-09-02T21:28:58.575Z,10.60
2018-09-02T21:31:26.782Z,9.23
2018-09-02T21:33:55.014Z,9.37
2018-09-02T21:36:23.252Z,10.20
2018-09-02T21:38:51.486Z,10.40
2018-09-02T21:41:19.714Z,9.70
2018-09-02T21:43:47.971Z,9.53
2018-09-02T21:46:16.182Z,8.97
2018-09-02T21:48:44.411Z,9.60
2018-09-02T21:51:12.685Z,10.27
2018-09-02T21:53:40.967Z,11.90
2018-09-02T21:56:09.181Z,11.13
2018-09-02T21:58:37.408Z,11.60
2018-09-02T22:01:05.650Z,11.30
2018-09-02T22:03:33.883Z,11.03
2018-09-02T22:06:02.110Z,11.00
2018-09-02T22:08:30.343Z,12.57
2018-09-02T22:10:58.575Z,10.83
2018-09-02T22:13:26.793Z,11.73
2018-09-02T22:15:55.014Z,10.77
2018-09-02T22:18:23.243Z,12.23
2018-09-02T22:20:51.467Z,10.70
2018-09-02T22:23:19.705Z,11.10
2018-09-02T22:25:47.961Z,11.50
2018-09-02T22:28:16.191Z,10.57
2018-09-02T22:30:44.425Z,11.40
2018-09-02T22:33:12.679Z,12.30
2018-09-02T22:35:40.923Z,11.67
2018-09-02T22:38:09.166Z,13.30
2018-09-02T22:40:37.385Z,12.67
2018-09-02T22:43:05.615Z,13.13
2018-09-02T22:45:33.827Z,11.17
2018-09-02T22:48:02.066Z,13.47
2018-09-02T22:50:30.307Z,11.90
2018-09-02T22:52:58.530Z,12.60
2018-09-02T22:55:26.765Z,11.70
2018-09-02T22:57:55.010Z,12.57
2018-09-02T23:00:23.211Z,11.87
2018-09-02T23:02:51.423Z,13.53
2018-09-02T23:05:19.646Z,12.50
2018-09-02T23:07:47.883Z,13.23
2018-09-02T23:10:16.121Z,13.60
2018-09-02T23:12:44.367Z,12.47
2018-09-02T23:15:12.619Z,12.90
2018-09-02T23:17:40.852Z,12.93
2018-09-02T23:20:09.093Z,14.47
2018-09-02T23:22:38.079Z,14.00
2018-09-02T23:25:06.331Z,12.97
2018-09-02T23:27:34.538Z,13.30
2018-09-02T23:30:02.765Z,13.23
2018-09-02T23:32:30.982Z,12.00
2018-09-02T23:34:59.232Z,13.17
2018-09-02T23:37:27.456Z,13.83
2018-09-02T23:39:55.699Z,13.10
2018-09-02T23:42:23.918Z,12.57
2018-09-02T23:44:52.143Z,13.30
2018-09-02T23:47:20.365Z,13.10
2018-09-02T23:49:48.591Z,14.13
2018-09-02T23:52:16.803Z,13.23
2018-09-02T23:54:45.027Z,13.13
2018-09-02T23:57:13.245Z,12.80
2018-09-02T23:59:41.482Z,13.87
